Time;durP1;ratioP1;P1;durP2;ratioP2;P2;SDS_P1;SDS_P2;PMS_P1;PMS_P2;Temp;Humidity;BMP_temperature;BMP_pressure;BME280_temperature;BME280_humidity;BME280_pressure;Samples;Min_cycle;Max_cycle;Signal;HPM_P1;HPM_P2
2022/09/21 00:00:37;;;;;;;8.48;4.43;;;;;;;14.21;62.13;100137.06;5052805;28;20035;-26
2022/09/21 00:03:03;;;;;;;7.68;3.83;;;;;;;14.20;63.19;100134.63;5070912;28;20028;-26
2022/09/21 00:05:30;;;;;;;5.70;3.45;;;;;;;13.96;63.75;100140.09;5070750;28;20056;-30
2022/09/21 00:07:59;;;;;;;6.10;2.90;;;;;;;13.96;62.78;100145.47;5085888;28;20045;-26
2022/09/21 00:10:25;;;;;;;6.07;2.92;;;;;;;14.26;61.64;100149.75;5070380;28;20587;-28
2022/09/21 00:12:52;;;;;;;4.90;3.10;;;;;;;14.09;62.43;100111.38;5052545;28;20141;-27
2022/09/21 00:15:18;;;;;;;5.57;3.10;;;;;;;14.31;62.12;100141.00;5070673;28;20036;-30
2022/09/21 00:17:44;;;;;;;5.30;3.08;;;;;;;14.30;61.99;100145.53;5070652;28;20101;-27
2022/09/21 00:20:10;;;;;;;11.80;3.55;;;;;;;13.91;63.02;100131.13;5070091;28;20028;-29
2022/09/21 00:22:36;;;;;;;4.88;3.55;;;;;;;14.05;63.03;100137.84;5070448;28;20392;-28
2022/09/21 00:25:02;;;;;;;5.47;3.28;;;;;;;13.70;63.86;100111.19;5070417;28;20032;-27
2022/09/21 00:27:29;;;;;;;4.97;3.38;;;;;;;13.62;64.72;100123.88;5070564;28;20035;-27
2022/09/21 00:29:56;;;;;;;4.03;2.95;;;;;;;13.65;64.96;100123.44;5070240;28;20564;-29
2022/09/21 00:32:23;;;;;;;5.20;3.38;;;;;;;13.38;66.27;100131.19;5070261;28;20399;-28
2022/09/21 00:34:50;;;;;;;3.77;2.80;;;;;;;13.18;67.55;100133.41;5070339;28;20036;-27
2022/09/21 00:37:16;;;;;;;6.47;3.63;;;;;;;12.98;70.20;100123.03;5069952;28;20323;-27
2022/09/21 00:39:42;;;;;;;4.35;3.20;;;;;;;12.84;70.20;100122.44;5070402;28;20052;-26
2022/09/21 00:42:13;;;;;;;5.55;3.20;;;;;;;12.93;69.98;100117.56;5069912;28;20031;-31
2022/09/21 00:44:38;;;;;;;6.40;2.92;;;;;;;13.02;69.15;100119.66;5070235;28;20035;-25
2022/09/21 00:47:16;;;;;;;6.75;2.90;;;;;;;12.76;70.08;100115.56;5070042;28;20036;-26
2022/09/21 00:49:44;;;;;;;8.15;3.10;;;;;;;12.69;71.07;100114.88;5070180;28;20584;-27
2022/09/21 00:52:13;;;;;;;4.22;3.08;;;;;;;12.58;71.95;100123.69;5069852;28;20036;-27
2022/09/21 00:54:55;;;;;;;4.35;2.80;;;;;;;12.42;71.05;100104.63;5070138;28;20032;-26
2022/09/21 00:57:24;;;;;;;5.72;3.00;;;;;;;12.40;71.24;100100.53;5069890;28;20031;-27
2022/09/21 00:59:53;;;;;;;4.78;2.78;;;;;;;12.32;71.65;100111.53;5069270;28;20428;-26
2022/09/21 01:02:19;;;;;;;4.32;2.78;;;;;;;12.86;70.25;100134.53;5068533;28;20032;-27
2022/09/21 01:04:45;;;;;;;4.05;2.80;;;;;;;12.97;68.77;100129.44;5069573;28;20059;-26
2022/09/21 01:07:18;;;;;;;7.88;3.20;;;;;;;12.62;69.85;100092.75;5069890;28;20032;-29
2022/09/21 01:09:52;;;;;;;4.63;3.00;;;;;;;12.73;70.38;100102.66;5069545;28;20078;-29
2022/09/21 01:12:43;;;;;;;6.47;3.10;;;;;;;13.05;69.79;100129.88;5069452;28;20535;-29
2022/09/21 01:15:37;;;;;;;5.68;2.92;;;;;;;12.96;66.91;100122.47;5069580;28;20032;-26
2022/09/21 01:18:11;;;;;;;3.90;2.40;;;;;;;13.08;64.79;100101.84;5069150;28;20024;-26
2022/09/21 01:20:55;;;;;;;3.22;2.35;;;;;;;13.25;65.36;100123.34;5050906;28;20579;-25
2022/09/21 01:23:52;;;;;;;4.78;2.50;;;;;;;13.42;63.86;100126.16;5069168;28;20460;-26
2022/09/21 01:26:50;;;;;;;5.88;3.08;;;;;;;13.16;65.75;100122.91;5069209;28;20029;-29
2022/09/21 01:29:26;;;;;;;3.30;2.58;;;;;;;12.68;69.55;100123.94;5068824;28;20428;-30
2022/09/21 01:32:06;;;;;;;3.40;2.42;;;;;;;12.61;69.95;100104.53;5051146;28;20032;-31
2022/09/21 01:34:42;;;;;;;5.40;3.10;;;;;;;13.04;69.00;100120.22;5069273;28;20517;-31
2022/09/21 01:37:16;;;;;;;4.85;2.80;;;;;;;12.90;69.39;100104.66;5069144;28;20549;-27
2022/09/21 01:39:44;;;;;;;4.45;2.78;;;;;;;13.26;67.77;100120.44;5069070;28;20024;-27
2022/09/21 01:42:12;;;;;;;3.58;3.00;;;;;;;13.01;67.90;100122.56;5069170;28;20103;-26
2022/09/21 01:44:40;;;;;;;6.13;2.67;;;;;;;13.04;68.23;100122.91;5068789;28;20028;-26
2022/09/21 01:47:09;;;;;;;4.22;2.78;;;;;;;13.29;66.82;100123.72;5068844;28;20031;-27
2022/09/21 01:49:40;;;;;;;3.47;2.35;;;;;;;13.09;67.37;100116.84;5050668;28;20109;-26
2022/09/21 01:52:13;;;;;;;4.72;2.67;;;;;;;13.34;67.23;100131.88;5068522;28;20111;-27
2022/09/21 01:54:51;;;;;;;5.40;2.65;;;;;;;13.44;66.54;100132.91;5068686;28;20016;-27
2022/09/21 01:57:33;;;;;;;3.45;2.58;;;;;;;13.33;66.30;100132.94;5050706;28;20029;-26
2022/09/21 02:00:00;;;;;;;3.65;2.30;;;;;;;13.28;64.98;100117.53;5068349;28;20029;-28
2022/09/21 02:02:37;;;;;;;3.75;2.28;;;;;;;13.20;66.34;100126.75;5068518;28;20111;-26
2022/09/21 02:05:04;;;;;;;3.42;2.50;;;;;;;12.80;67.96;100121.28;5068140;28;20056;-27
2022/09/21 02:07:32;;;;;;;3.13;2.40;;;;;;;12.95;66.87;100121.63;5068658;28;20081;-26
2022/09/21 02:10:00;;;;;;;6.10;2.38;;;;;;;12.83;68.18;100121.63;5068206;28;20055;-28
2022/09/21 02:12:25;;;;;;;6.85;2.85;;;;;;;12.80;67.96;100127.44;5067928;28;20046;-28
2022/09/21 02:14:56;;;;;;;6.20;3.20;;;;;;;13.05;67.29;100126.41;5068417;28;20029;-26
2022/09/21 02:17:53;;;;;;;6.35;2.97;;;;;;;12.94;66.23;100111.97;5049987;28;20060;-27
2022/09/21 02:20:26;;;;;;;4.05;2.75;;;;;;;12.95;67.64;100131.53;5068394;28;20491;-26
2022/09/21 02:23:11;;;;;;;3.90;2.60;;;;;;;13.05;65.58;100129.06;5068245;28;20072;-26
2022/09/21 02:25:40;;;;;;;4.80;3.00;;;;;;;12.58;68.57;100129.03;5049999;28;20021;-30
2022/09/21 02:28:38;;;;;;;4.97;2.80;;;;;;;12.53;69.60;100139.63;5067961;28;20127;-27
2022/09/21 02:31:45;;;;;;;8.95;2.70;;;;;;;12.55;69.96;100134.88;5067979;28;20107;-27
2022/09/21 02:34:20;;;;;;;8.55;2.90;;;;;;;12.59;69.89;100114.63;5067973;28;20056;-27
2022/09/21 02:36:55;;;;;;;6.75;2.70;;;;;;;13.02;68.28;100134.91;5067948;28;20115;-26
2022/09/21 02:39:34;;;;;;;5.15;2.88;;;;;;;13.03;68.21;100115.09;5067831;28;20461;-28
2022/09/21 02:42:32;;;;;;;5.43;2.75;;;;;;;13.25;68.33;100129.53;5067528;28;20025;-27
2022/09/21 02:45:00;;;;;;;3.95;3.03;;;;;;;13.26;67.13;100131.16;5067312;28;20040;-27
2022/09/21 02:47:40;;;;;;;;;;;;;;;13.31;64.95;100132.34;5068098;28;20373;-26
2022/09/21 02:50:13;;;;;;;11.98;3.90;;;;;;;13.02;65.28;100129.56;5067580;28;20661;-29
2022/09/21 02:52:41;;;;;;;4.82;3.25;;;;;;;12.89;66.02;100129.78;5067563;28;20032;-27
2022/09/21 02:55:08;;;;;;;5.05;3.17;;;;;;;12.55;67.19;100098.22;5067330;28;20024;-28
2022/09/21 02:57:36;;;;;;;6.72;3.30;;;;;;;12.54;68.04;100127.88;5067716;28;20505;-26
2022/09/21 03:00:04;;;;;;;6.72;3.60;;;;;;;12.51;68.08;100123.00;5067343;28;20078;-26
2022/09/21 03:02:41;;;;;;;4.97;3.28;;;;;;;12.52;66.81;100116.59;5067635;28;20064;-29
2022/09/21 03:05:08;;;;;;;6.80;2.95;;;;;;;12.45;66.83;100125.53;5049051;28;20065;-30
2022/09/21 03:07:33;;;;;;;6.22;3.10;;;;;;;12.45;66.08;100124.72;5067209;28;20024;-28
2022/09/21 03:09:59;;;;;;;4.47;3.05;;;;;;;12.65;66.51;100127.09;5066777;28;20040;-26
2022/09/21 03:12:25;;;;;;;4.80;2.80;;;;;;;12.54;64.62;100122.53;5067324;28;20103;-29
2022/09/21 03:14:51;;;;;;;4.35;2.90;;;;;;;12.66;63.90;100126.84;5067514;28;20028;-27
2022/09/21 03:17:17;;;;;;;4.65;2.72;;;;;;;12.73;64.45;100132.09;5067292;28;20031;-26
2022/09/21 03:19:43;;;;;;;6.63;2.70;;;;;;;12.63;63.19;100119.28;5066946;28;20028;-26
2022/09/21 03:22:08;;;;;;;4.63;2.70;;;;;;;12.55;63.35;100138.34;5066980;28;20944;-26
2022/09/21 03:24:46;;;;;;;3.95;2.60;;;;;;;12.48;63.42;100134.16;5066592;28;20063;-26
2022/09/21 03:27:19;;;;;;;4.88;2.60;;;;;;;12.15;64.83;100119.41;5066964;28;20042;-27
2022/09/21 03:29:45;;;;;;;5.68;2.90;;;;;;;12.17;65.15;100133.38;5049070;28;20040;-25
2022/09/21 03:32:13;;;;;;;7.25;2.80;;;;;;;12.18;65.21;100135.81;5066949;28;20024;-27
2022/09/21 03:34:38;;;;;;;4.63;2.97;;;;;;;11.99;65.83;100124.38;5066925;28;20040;-28
2022/09/21 03:37:06;;;;;;;4.68;3.10;;;;;;;12.08;66.06;100129.41;5067126;28;20819;-26
2022/09/21 03:39:31;;;;;;;3.85;2.70;;;;;;;11.80;66.46;100112.84;5066408;28;20103;-26
2022/09/21 03:41:57;;;;;;;4.20;3.30;;;;;;;11.99;66.03;100113.69;5066336;28;20027;-30
2022/09/21 03:44:24;;;;;;;4.53;3.33;;;;;;;11.94;66.46;100140.25;5067011;28;20028;-27
2022/09/21 03:46:50;;;;;;;4.73;2.70;;;;;;;11.78;67.61;100141.66;5066884;28;20506;-28
2022/09/21 03:49:16;;;;;;;4.95;3.10;;;;;;;11.82;68.06;100153.53;5067033;28;20028;-27
2022/09/21 03:51:42;;;;;;;6.00;3.50;;;;;;;11.79;68.04;100137.13;5048797;28;20032;-26
2022/09/21 03:54:08;;;;;;;4.15;2.90;;;;;;;11.84;68.51;100134.59;5066619;28;20032;-27
2022/09/21 03:56:33;;;;;;;6.80;3.40;;;;;;;12.13;67.86;100154.38;5067140;28;20040;-27
2022/09/21 03:58:58;;;;;;;6.13;3.30;;;;;;;12.24;67.37;100150.16;5066841;28;20111;-29
2022/09/21 04:01:24;;;;;;;8.05;3.20;;;;;;;12.30;67.89;100146.56;5066761;28;20028;-25
2022/09/21 04:03:50;;;;;;;5.47;3.20;;;;;;;12.36;67.12;100148.31;5066130;28;20119;-33
2022/09/21 04:06:15;;;;;;;4.30;2.75;;;;;;;12.22;68.17;100134.31;5066649;28;20056;-28
2022/09/21 04:08:41;;;;;;;4.15;2.97;;;;;;;12.46;67.26;100142.41;5067204;28;20021;-26
2022/09/21 04:11:11;;;;;;;5.35;3.15;;;;;;;12.42;67.48;100131.34;5066667;28;20443;-25
2022/09/21 04:13:36;;;;;;;7.88;3.35;;;;;;;12.63;68.36;100154.06;5066848;28;20108;-26
2022/09/21 04:16:02;;;;;;;5.35;2.95;;;;;;;12.52;68.59;100140.66;5066336;28;20115;-25
2022/09/21 04:18:27;;;;;;;4.40;3.13;;;;;;;12.36;70.54;100144.81;5067101;28;20029;-27
2022/09/21 04:20:53;;;;;;;6.00;2.88;;;;;;;12.43;69.13;100132.16;5066647;28;20032;-27
2022/09/21 04:23:18;;;;;;;7.38;2.90;;;;;;;12.32;70.02;100136.44;5048994;28;20044;-27
2022/09/21 04:25:47;;;;;;;4.35;2.90;;;;;;;12.57;69.03;100149.63;5066488;28;20450;-27
2022/09/21 04:28:12;;;;;;;4.70;3.10;;;;;;;12.55;68.50;100135.69;5066570;28;20025;-27
2022/09/21 04:30:39;;;;;;;5.07;3.28;;;;;;;12.74;66.93;100151.66;5066320;28;20039;-28
2022/09/21 04:33:05;;;;;;;4.43;3.10;;;;;;;12.75;66.66;100155.94;5048557;28;20023;-27
2022/09/21 04:35:30;;;;;;;5.57;2.75;;;;;;;12.69;66.80;100165.72;5068191;28;20039;-26
2022/09/21 04:37:56;;;;;;;3.58;2.88;;;;;;;12.64;66.91;100152.19;5069640;28;20029;-28
2022/09/21 04:40:22;;;;;;;4.63;3.00;;;;;;;12.72;66.39;100146.50;5070044;28;20028;-30
2022/09/21 04:42:54;;;;;;;4.43;3.13;;;;;;;12.62;67.46;100167.66;5070091;28;20092;-27
2022/09/21 04:45:21;;;;;;;4.93;3.28;;;;;;;12.72;68.06;100162.56;5069742;28;20064;-26
2022/09/21 04:47:47;;;;;;;4.65;2.85;;;;;;;12.69;67.80;100146.16;5069823;28;20032;-27
2022/09/21 04:50:12;;;;;;;5.80;3.40;;;;;;;12.82;67.32;100157.47;5070045;28;20032;-26
2022/09/21 04:52:38;;;;;;;4.90;3.05;;;;;;;12.96;66.51;100173.31;5069866;28;20104;-26
2022/09/21 04:55:05;;;;;;;5.80;3.40;;;;;;;12.64;67.02;100165.59;5069755;28;20055;-28
2022/09/21 04:57:30;;;;;;;5.82;3.45;;;;;;;12.81;66.82;100176.41;5069492;28;20055;-28
2022/09/21 04:59:56;;;;;;;5.25;3.15;;;;;;;12.88;67.52;100176.34;5051061;28;20488;-27
2022/09/21 05:02:21;;;;;;;5.30;3.47;;;;;;;12.93;66.59;100179.91;5069668;28;20031;-31
2022/09/21 05:04:46;;;;;;;7.15;3.80;;;;;;;12.71;67.34;100160.97;5069634;28;20489;-28
2022/09/21 05:07:12;;;;;;;4.63;3.17;;;;;;;12.84;66.85;100171.44;5069850;28;20039;-26
2022/09/21 05:12:21;;;;;;;6.15;3.50;;;;;;;13.05;67.32;100172.72;5069399;28;20044;-30
2022/09/21 05:14:47;;;;;;;6.35;3.47;;;;;;;13.06;66.61;100158.28;5069306;28;20024;-25
2022/09/21 05:17:12;;;;;;;5.68;3.20;;;;;;;12.97;66.59;100150.84;5069538;28;20027;-27
2022/09/21 05:19:39;;;;;;;6.40;3.58;;;;;;;13.18;66.59;100166.34;5069069;28;20044;-26
2022/09/21 05:22:04;;;;;;;5.28;3.60;;;;;;;13.17;66.83;100159.34;5069099;28;20021;-27
2022/09/21 05:24:29;;;;;;;7.15;4.30;;;;;;;13.20;66.58;100142.81;5069273;28;20058;-27
2022/09/21 05:26:55;;;;;;;5.55;3.75;;;;;;;13.35;66.65;100157.63;5068751;28;20086;-27
2022/09/21 05:29:20;;;;;;;7.88;4.05;;;;;;;13.36;66.42;100156.56;5050990;28;20021;-26
2022/09/21 05:32:22;;;;;;;6.60;4.28;;;;;;;13.45;66.58;100163.19;5050745;28;20025;-31
2022/09/21 05:35:05;;;;;;;6.57;4.20;;;;;;;13.33;67.53;100162.41;5068926;28;20451;-28
2022/09/21 05:37:52;;;;;;;6.70;4.15;;;;;;;13.43;66.98;100150.03;5068837;28;20047;-26
2022/09/21 05:40:18;;;;;;;5.05;3.67;;;;;;;13.58;66.22;100168.28;5068984;28;20064;-26
2022/09/21 05:42:44;;;;;;;6.03;3.78;;;;;;;13.69;64.93;100150.56;5051090;28;20090;-25
2022/09/21 05:45:16;;;;;;;5.60;3.35;;;;;;;13.86;64.68;100172.88;5068719;28;20032;-26
2022/09/21 05:48:00;;;;;;;5.53;3.53;;;;;;;13.99;63.69;100171.78;5068041;28;20024;-27
2022/09/21 05:50:31;;;;;;;5.50;3.60;;;;;;;14.23;64.15;100177.06;5068617;28;20024;-28
2022/09/21 05:53:12;;;;;;;5.50;3.28;;;;;;;14.25;63.26;100178.44;5069014;28;20106;-27
2022/09/21 05:56:01;;;;;;;6.65;3.58;;;;;;;14.22;63.66;100178.94;5068542;28;20041;-31
2022/09/21 05:59:03;;;;;;;4.57;3.17;;;;;;;14.31;62.78;100184.72;5068699;28;20059;-27
2022/09/21 06:01:50;;;;;;;4.68;2.92;;;;;;;13.87;62.71;100173.69;5068403;28;20035;-27
2022/09/21 06:04:16;;;;;;;9.57;5.25;;;;;;;13.79;64.01;100176.75;5067863;28;20032;-27
2022/09/21 06:06:42;;;;;;;4.38;2.97;;;;;;;13.89;64.97;100165.41;5068119;28;20029;-25
2022/09/21 06:09:07;;;;;;;4.95;2.90;;;;;;;13.96;63.79;100160.75;5068081;28;20055;-27
2022/09/21 06:11:33;;;;;;;7.45;3.80;;;;;;;14.05;63.49;100165.47;5068446;28;20024;-28
2022/09/21 06:14:01;;;;;;;5.55;3.33;;;;;;;14.09;63.75;100176.53;5068096;28;20024;-27
2022/09/21 06:16:26;;;;;;;4.30;3.30;;;;;;;14.33;63.27;100176.44;5068039;28;20074;-26
2022/09/21 06:18:52;;;;;;;5.35;3.30;;;;;;;14.19;63.04;100144.53;5049770;28;20030;-26
2022/09/21 06:21:17;;;;;;;4.72;2.95;;;;;;;14.45;63.67;100167.28;5067883;28;20541;-26
2022/09/21 06:23:43;;;;;;;5.50;3.60;;;;;;;14.50;63.67;100171.09;5067953;28;20028;-27
2022/09/21 06:26:08;;;;;;;4.82;3.22;;;;;;;14.49;62.01;100169.47;5067708;28;20033;-31
2022/09/21 06:28:33;;;;;;;6.22;3.30;;;;;;;14.42;63.29;100178.47;5049841;28;20033;-27
2022/09/21 06:30:59;;;;;;;5.57;3.28;;;;;;;14.40;63.40;100153.75;5067691;28;20058;-27
2022/09/21 06:33:24;;;;;;;4.25;2.40;;;;;;;14.45;62.17;100179.88;5067654;28;20691;-27
2022/09/21 06:35:51;;;;;;;4.20;2.60;;;;;;;14.69;61.46;100169.84;5067254;28;20036;-27
2022/09/21 06:38:16;;;;;;;4.50;2.78;;;;;;;14.76;61.12;100165.13;5067781;28;20526;-28
2022/09/21 06:40:42;;;;;;;4.50;2.70;;;;;;;14.76;61.17;100165.13;5067685;28;20111;-26
2022/09/21 06:43:07;;;;;;;3.78;2.20;;;;;;;14.92;59.49;100174.25;5067626;28;20082;-27
2022/09/21 06:45:32;;;;;;;4.20;2.20;;;;;;;15.05;57.53;100175.78;5067345;28;20408;-30
2022/09/21 06:47:58;;;;;;;2.85;1.90;;;;;;;15.02;59.15;100177.09;5067295;28;20024;-26
2022/09/21 06:50:24;;;;;;;3.25;1.90;;;;;;;14.98;57.80;100172.47;5067343;28;20089;-31
2022/09/21 06:52:50;;;;;;;2.60;1.90;;;;;;;14.98;58.33;100175.16;5067318;28;20025;-27
2022/09/21 06:55:16;;;;;;;3.45;2.03;;;;;;;14.97;56.88;100165.44;5082900;28;20067;-27
2022/09/21 06:57:42;;;;;;;3.17;1.85;;;;;;;14.95;56.56;100173.75;5067273;28;20106;-25
2022/09/21 07:00:10;;;;;;;4.63;2.28;;;;;;;15.07;57.79;100170.97;5066307;28;20029;-27
2022/09/21 07:02:36;;;;;;;4.18;2.35;;;;;;;15.35;56.98;100178.09;5067282;28;20052;-29
2022/09/21 07:05:02;;;;;;;4.55;2.17;;;;;;;15.67;55.88;100180.94;5066868;28;20087;-27
2022/09/21 07:07:31;;;;;;;3.88;2.05;;;;;;;15.46;56.16;100157.53;5067210;28;20115;-28
2022/09/21 07:10:00;;;;;;;5.07;2.08;;;;;;;15.72;56.06;100160.56;5067068;28;20057;-26
2022/09/21 07:12:33;;;;;;;4.32;2.30;;;;;;;15.82;56.10;100172.28;5066980;28;20024;-26
2022/09/21 07:14:59;;;;;;;4.25;2.20;;;;;;;16.26;54.59;100164.16;5067296;28;20476;-30
2022/09/21 07:17:25;;;;;;;3.15;2.38;;;;;;;16.57;54.59;100174.38;5067089;28;20035;-30
2022/09/21 07:19:51;;;;;;;4.55;2.80;;;;;;;16.48;53.45;100174.84;5066898;28;20162;-26
2022/09/21 07:22:16;;;;;;;2.72;1.85;;;;;;;16.56;52.68;100162.00;5066933;28;20123;-26
2022/09/21 07:24:42;;;;;;;3.05;1.92;;;;;;;16.56;52.86;100170.06;5066969;28;20454;-27
2022/09/21 07:27:07;;;;;;;3.00;2.00;;;;;;;16.71;52.77;100155.91;5066711;28;20077;-27
2022/09/21 07:29:33;;;;;;;4.65;2.28;;;;;;;16.41;52.25;100152.72;5066850;28;20408;-30
2022/09/21 07:31:58;;;;;;;6.82;2.70;;;;;;;16.77;52.05;100155.69;5066360;28;20115;-27
2022/09/21 07:34:23;;;;;;;5.30;2.40;;;;;;;16.93;51.63;100175.50;5066708;28;20467;-27
2022/09/21 07:36:49;;;;;;;4.80;2.38;;;;;;;16.81;50.84;100164.91;5066985;28;20071;-27
2022/09/21 07:39:14;;;;;;;4.18;2.50;;;;;;;16.84;51.40;100171.69;5066775;28;20119;-27
2022/09/21 07:41:40;;;;;;;8.70;2.35;;;;;;;16.70;52.94;100155.13;5066579;28;20111;-26
2022/09/21 07:44:05;;;;;;;4.10;1.88;;;;;;;17.12;51.28;100167.84;5066805;28;20829;-30
2022/09/21 07:46:30;;;;;;;3.10;1.80;;;;;;;17.41;50.96;100146.72;5066202;28;20027;-28
2022/09/21 07:48:56;;;;;;;6.47;1.98;;;;;;;17.80;49.95;100164.41;5066835;28;20036;-26
2022/09/21 07:51:22;;;;;;;3.05;2.00;;;;;;;17.84;48.94;100152.06;5066562;28;20048;-26
2022/09/21 07:53:55;;;;;;;3.45;1.80;;;;;;;17.74;48.77;100170.88;5066557;28;20086;-30
2022/09/21 07:56:21;;;;;;;3.10;1.90;;;;;;;18.19;49.29;100169.41;5042617;28;20043;-28
2022/09/21 07:59:04;;;;;;;3.65;1.63;;;;;;;18.34;47.63;100155.91;5048728;28;20028;-28
2022/09/21 08:01:31;;;;;;;3.28;1.70;;;;;;;18.19;46.33;100158.63;5066701;28;20427;-26
2022/09/21 08:03:58;;;;;;;2.90;2.00;;;;;;;18.54;46.27;100170.53;5048402;28;20052;-25
2022/09/21 08:06:26;;;;;;;4.00;1.70;;;;;;;18.81;44.99;100171.09;5066645;28;20049;-29
2022/09/21 08:08:52;;;;;;;2.95;1.58;;;;;;;18.53;43.24;100161.63;5066725;28;20028;-26
2022/09/21 08:11:21;;;;;;;2.55;1.65;;;;;;;18.67;43.99;100148.38;5069213;28;20035;-29
2022/09/21 08:13:47;;;;;;;2.58;1.20;;;;;;;18.50;41.87;100164.06;5070330;28;20031;-27
2022/09/21 08:16:13;;;;;;;4.43;1.75;;;;;;;18.46;43.81;100148.38;5052323;28;20048;-29
2022/09/21 08:18:40;;;;;;;3.50;1.55;;;;;;;18.37;44.17;100155.41;5070611;28;20064;-29
2022/09/21 08:21:08;;;;;;;3.03;1.33;;;;;;;18.60;42.20;100155.97;5052149;28;20737;-29
2022/09/21 08:23:33;;;;;;;3.35;1.45;;;;;;;19.02;44.17;100160.25;5070041;28;20020;-27
2022/09/21 08:26:07;;;;;;;2.50;1.50;;;;;;;19.20;40.88;100151.56;5069766;28;20033;-27
2022/09/21 08:28:35;;;;;;;2.30;1.48;;;;;;;19.48;42.31;100160.16;5070179;28;20571;-27
2022/09/21 08:31:00;;;;;;;;;;;;;;;19.60;41.05;100149.03;5070536;28;20123;-26
2022/09/21 08:33:27;;;;;;;3.20;1.17;;;;;;;19.48;39.36;100146.66;5069892;28;20019;-29
2022/09/21 08:35:54;;;;;;;2.75;1.20;;;;;;;19.36;39.52;100138.03;5069703;28;20106;-27
2022/09/21 08:38:20;;;;;;;1.67;1.30;;;;;;;19.51;39.53;100148.78;5069854;28;20063;-27
2022/09/21 08:40:46;;;;;;;3.20;1.80;;;;;;;20.07;40.03;100143.13;5069779;28;20472;-27
2022/09/21 08:43:23;;;;;;;3.83;1.15;;;;;;;20.13;38.81;100145.81;5070123;28;20135;-30
2022/09/21 08:45:48;;;;;;;2.57;1.10;;;;;;;20.12;37.60;100141.50;5069733;28;20021;-30
2022/09/21 08:48:29;;;;;;;3.67;1.10;;;;;;;20.13;36.96;100145.81;5070352;28;20290;-28
2022/09/21 08:51:00;;;;;;;2.45;1.10;;;;;;;20.43;38.11;100140.19;5069879;28;20028;-29
2022/09/21 08:53:47;;;;;;;2.60;1.17;;;;;;;20.53;37.14;100141.19;5069682;28;20086;-26
2022/09/21 08:56:14;;;;;;;1.77;0.95;;;;;;;20.34;35.56;100117.50;5069645;28;20042;-26
2022/09/21 08:58:41;;;;;;;1.83;0.90;;;;;;;20.53;33.50;100124.94;5069428;28;20035;-27
2022/09/21 09:01:21;;;;;;;1.88;1.00;;;;;;;20.37;35.89;100113.41;5051383;28;20032;-28
2022/09/21 09:04:04;;;;;;;1.05;0.80;;;;;;;20.03;36.67;100131.25;5069247;28;20028;-30
2022/09/21 09:07:01;;;;;;;3.97;1.10;;;;;;;19.93;37.61;100125.09;5069472;28;20084;-28
2022/09/21 09:09:49;;;;;;;2.83;1.10;;;;;;;20.41;39.34;100109.88;5051167;28;20016;-27
2022/09/21 09:12:41;;;;;;;3.20;1.10;;;;;;;19.88;35.84;100112.41;5051326;28;20655;-27
2022/09/21 09:15:19;;;;;;;1.73;1.05;;;;;;;19.84;36.37;100112.16;5069369;28;20519;-31
2022/09/21 09:18:10;;;;;;;2.60;1.10;;;;;;;19.94;38.75;100108.59;5069618;28;20071;-27
2022/09/21 09:20:36;;;;;;;2.47;1.00;;;;;;;20.25;37.42;100102.97;5045038;28;20045;-27
2022/09/21 09:23:08;;;;;;;4.78;1.25;;;;;;;20.71;38.19;100099.88;5068248;28;20492;-28
2022/09/21 09:25:40;;;;;;;4.55;1.95;;;;;;;20.52;32.89;100091.63;5050884;28;20385;-29
2022/09/21 09:28:26;;;;;;;1.50;0.93;;;;;;;20.56;33.70;100105.41;5069159;28;20033;-27
2022/09/21 09:30:59;;;;;;;1.45;1.10;;;;;;;21.01;35.99;100100.69;5068890;28;20135;-27
2022/09/21 09:33:43;;;;;;;5.15;2.00;;;;;;;21.33;33.13;100091.09;5069184;28;20035;-28
2022/09/21 09:36:11;;;;;;;3.10;1.20;;;;;;;21.25;32.78;100090.63;5050475;28;20115;-30
2022/09/21 09:38:48;;;;;;;;;;;;;;;21.38;32.82;100089.13;5069186;28;20039;-27
2022/09/21 09:41:45;;;;;;;3.58;1.83;;;;;;;21.12;34.20;100095.94;5068671;28;19912;-26
2022/09/21 09:44:31;;;;;;;2.28;0.90;;;;;;;20.62;32.81;100077.22;5068532;28;20033;-26
2022/09/21 09:47:21;;;;;;;0.90;0.70;;;;;;;21.24;32.35;100089.00;5068462;28;20029;-25
2022/09/21 09:50:05;;;;;;;0.77;0.60;;;;;;;21.02;31.49;100088.72;5068437;28;20032;-29
2022/09/21 09:52:32;;;;;;;2.63;0.98;;;;;;;20.72;33.89;100077.13;5068553;28;20028;-28
2022/09/21 09:54:59;;;;;;;1.87;1.20;;;;;;;21.34;34.61;100071.00;5068496;28;20131;-28
2022/09/21 09:57:33;;;;;;;1.75;1.08;;;;;;;21.36;32.98;100064.19;5050384;28;20037;-26
2022/09/21 10:00:04;;;;;;;1.45;0.88;;;;;;;21.05;33.27;100080.03;5050131;28;20036;-29
2022/09/21 10:02:30;;;;;;;1.73;0.82;;;;;;;21.23;34.93;100076.56;5068263;28;20028;-27
2022/09/21 10:05:07;;;;;;;1.63;0.90;;;;;;;21.28;33.31;100073.78;5068405;28;20052;-30
2022/09/21 10:07:47;;;;;;;2.17;0.90;;;;;;;21.41;32.15;100055.16;5068208;28;20056;-27
2022/09/21 10:10:28;;;;;;;2.47;1.23;;;;;;;21.46;31.71;100080.38;5068197;28;20452;-27
2022/09/21 10:13:14;;;;;;;1.67;1.00;;;;;;;21.64;32.58;100069.84;5068130;28;20074;-29
2022/09/21 10:15:50;;;;;;;3.63;1.20;;;;;;;21.58;32.74;100071.00;5039334;28;20440;-28
2022/09/21 10:18:48;;;;;;;1.30;1.10;;;;;;;21.79;32.58;100066.09;5049846;28;20504;-27
2022/09/21 10:21:38;;;;;;;2.83;1.20;;;;;;;22.48;30.67;100071.03;5062076;28;20045;-30
2022/09/21 10:24:16;;;;;;;0.88;0.82;;;;;;;22.48;30.12;100071.03;5060262;28;20040;-30
2022/09/21 10:26:48;;;;;;;1.00;0.80;;;;;;;22.58;29.93;100047.19;5067871;28;20123;-28
2022/09/21 10:29:24;;;;;;;1.80;0.80;;;;;;;22.67;29.99;100066.31;5067884;28;20028;-28
2022/09/21 10:31:58;;;;;;;2.03;0.80;;;;;;;23.46;30.68;100051.75;5067891;28;20071;-28
2022/09/21 10:34:26;;;;;;;1.88;0.65;;;;;;;23.22;28.50;100050.06;5067498;28;20063;-26
2022/09/21 10:36:55;;;;;;;0.68;0.60;;;;;;;23.08;26.80;100054.69;5049690;28;20035;-28
2022/09/21 10:39:28;;;;;;;1.13;0.70;;;;;;;23.01;27.27;100054.28;5067595;28;20431;-27
2022/09/21 10:42:02;;;;;;;1.90;0.60;;;;;;;23.01;27.15;100035.25;5067709;28;20028;-27
2022/09/21 10:44:38;;;;;;;2.95;0.90;;;;;;;23.87;29.87;100034.50;5067728;28;20477;-30
2022/09/21 10:47:19;;;;;;;1.30;0.90;;;;;;;23.69;27.44;100038.19;5067547;28;20150;-27
2022/09/21 10:49:57;;;;;;;4.25;1.10;;;;;;;23.39;28.51;100035.00;5067304;28;20033;-27
2022/09/21 10:52:37;;;;;;;;;;;;;;;23.74;30.03;100043.50;5067937;28;20057;-30
2022/09/21 10:55:04;;;;;;;2.28;0.90;;;;;;;23.81;31.17;100033.81;5049310;28;20376;-29
2022/09/21 10:57:32;;;;;;;1.85;0.70;;;;;;;24.00;28.76;100022.75;5067611;28;20119;-27
2022/09/21 10:59:58;;;;;;;5.68;2.63;;;;;;;24.38;28.54;100033.25;5067521;28;20155;-28
2022/09/21 11:02:30;;;;;;;26.02;16.30;;;;;;;24.93;26.75;100043.00;5067222;28;20032;-27
2022/09/21 11:05:17;;;;;;;3.13;1.00;;;;;;;25.10;27.72;100020.41;5067014;28;20055;-30
2022/09/21 11:07:46;;;;;;;1.95;1.05;;;;;;;25.18;26.63;100013.38;5049063;28;20679;-27
2022/09/21 11:10:47;;;;;;;1.80;0.73;;;;;;;25.15;28.50;100033.91;5067227;28;20067;-29
2022/09/21 11:13:29;;;;;;;1.80;0.88;;;;;;;24.30;28.04;100009.47;5053108;28;20040;-28
2022/09/21 11:16:07;;;;;;;2.10;0.90;;;;;;;24.13;28.38;100028.44;5066946;28;20032;-27
2022/09/21 11:18:50;;;;;;;;;;;;;;;23.47;27.24;100023.41;5067465;28;20024;-27
2022/09/21 11:21:37;;;;;;;1.45;0.80;;;;;;;24.38;29.57;100016.91;5066932;28;19947;-27
2022/09/21 11:24:27;;;;;;;1.35;0.80;;;;;;;24.50;28.01;100010.06;5066974;28;20040;-28
2022/09/21 11:27:03;;;;;;;3.78;1.48;;;;;;;25.10;28.98;100004.03;5066835;28;20043;-29
2022/09/21 11:29:31;;;;;;;1.77;0.90;;;;;;;24.67;26.37;100012.88;5048729;28;20090;-28
2022/09/21 11:32:07;;;;;;;0.73;0.70;;;;;;;23.79;28.41;100002.56;5066792;28;20059;-27
2022/09/21 11:34:45;;;;;;;1.58;0.80;;;;;;;23.27;29.48;99990.09;5066958;28;20037;-27
2022/09/21 11:37:38;;;;;;;1.73;1.00;;;;;;;23.34;29.55;99999.75;5066820;28;20032;-28
2022/09/21 11:40:47;;;;;;;1.25;0.80;;;;;;;23.33;30.71;99993.50;5066969;28;20041;-27
2022/09/21 11:43:18;;;;;;;2.25;0.90;;;;;;;23.92;29.79;99976.38;5067037;28;20035;-27
2022/09/21 11:46:17;;;;;;;2.35;1.00;;;;;;;23.74;28.85;99997.22;5050712;28;20121;-29
2022/09/21 11:49:07;;;;;;;2.20;1.10;;;;;;;23.49;29.38;99991.25;5052964;28;20033;-30
2022/09/21 11:51:56;;;;;;;1.08;0.63;;;;;;;22.99;30.41;99988.50;5052841;28;20032;-27